sensor_id;sensor_type;location;lat;lon;timestamp;temperature;humidity
13229;DHT22;6680;53.220;10.402;2023-05-07T00:00:55;9.30;99.90
13229;DHT22;6680;53.220;10.402;2023-05-07T00:03:23;9.30;99.90
13229;DHT22;6680;53.220;10.402;2023-05-07T00:05:50;9.30;99.90
13229;DHT22;6680;53.220;10.402;2023-05-07T00:08:18;9.60;99.90
13229;DHT22;6680;53.220;10.402;2023-05-07T00:10:45;9.20;99.90
13229;DHT22;6680;53.220;10.402;2023-05-07T00:13:12;9.30;99.90
13229;DHT22;6680;53.220;10.402;2023-05-07T00:15:39;9.30;99.90
13229;DHT22;6680;53.220;10.402;2023-05-07T00:18:06;9.30;99.90
13229;DHT22;6680;53.220;10.402;2023-05-07T00:20:34;9.20;99.90
13229;DHT22;6680;53.220;10.402;2023-05-07T00:23:00;9.20;99.90
13229;DHT22;6680;53.220;10.402;2023-05-07T00:25:27;9.20;99.90
13229;DHT22;6680;53.220;10.402;2023-05-07T00:27:54;9.20;99.90
13229;DHT22;6680;53.220;10.402;2023-05-07T00:30:21;9.20;99.90
13229;DHT22;6680;53.220;10.402;2023-05-07T00:32:47;9.20;99.90
13229;DHT22;6680;53.220;10.402;2023-05-07T00:35:16;9.20;99.90
13229;DHT22;6680;53.220;10.402;2023-05-07T00:37:44;9.30;99.90
13229;DHT22;6680;53.220;10.402;2023-05-07T00:40:11;9.30;99.90
13229;DHT22;6680;53.220;10.402;2023-05-07T00:42:37;9.30;99.90
13229;DHT22;6680;53.220;10.402;2023-05-07T00:45:05;9.30;99.90
13229;DHT22;6680;53.220;10.402;2023-05-07T00:47:33;9.30;99.90
13229;DHT22;6680;53.220;10.402;2023-05-07T00:50:00;9.30;99.90
13229;DHT22;6680;53.220;10.402;2023-05-07T00:52:27;9.30;99.90
13229;DHT22;6680;53.220;10.402;2023-05-07T00:54:56;9.20;99.90
13229;DHT22;6680;53.220;10.402;2023-05-07T00:57:24;9.20;99.90
13229;DHT22;6680;53.220;10.402;2023-05-07T00:59:51;9.20;99.90
13229;DHT22;6680;53.220;10.402;2023-05-07T01:02:18;9.10;99.90
13229;DHT22;6680;53.220;10.402;2023-05-07T01:04:45;9.10;99.90
13229;DHT22;6680;53.220;10.402;2023-05-07T01:07:12;9.20;99.90
13229;DHT22;6680;53.220;10.402;2023-05-07T01:09:39;9.20;99.90
13229;DHT22;6680;53.220;10.402;2023-05-07T01:12:08;9.20;99.90
13229;DHT22;6680;53.220;10.402;2023-05-07T01:14:35;9.20;99.90
13229;DHT22;6680;53.220;10.402;2023-05-07T01:17:02;9.20;99.90
13229;DHT22;6680;53.220;10.402;2023-05-07T01:19:29;9.20;99.90
13229;DHT22;6680;53.220;10.402;2023-05-07T01:22:02;9.20;99.90
13229;DHT22;6680;53.220;10.402;2023-05-07T01:24:31;9.20;99.90
13229;DHT22;6680;53.220;10.402;2023-05-07T01:26:58;9.20;99.90
13229;DHT22;6680;53.220;10.402;2023-05-07T01:29:27;9.20;99.90
13229;DHT22;6680;53.220;10.402;2023-05-07T01:31:54;9.20;99.90
13229;DHT22;6680;53.220;10.402;2023-05-07T01:34:21;9.20;99.90
13229;DHT22;6680;53.220;10.402;2023-05-07T01:36:48;9.10;99.90
13229;DHT22;6680;53.220;10.402;2023-05-07T01:39:16;9.20;99.90
13229;DHT22;6680;53.220;10.402;2023-05-07T01:41:45;9.10;99.90
13229;DHT22;6680;53.220;10.402;2023-05-07T01:44:12;9.10;99.90
13229;DHT22;6680;53.220;10.402;2023-05-07T01:46:40;9.10;99.90
13229;DHT22;6680;53.220;10.402;2023-05-07T01:49:06;9.10;99.90
13229;DHT22;6680;53.220;10.402;2023-05-07T01:51:33;9.10;99.90
13229;DHT22;6680;53.220;10.402;2023-05-07T01:54:00;9.10;99.90
13229;DHT22;6680;53.220;10.402;2023-05-07T01:56:27;9.10;99.90
13229;DHT22;6680;53.220;10.402;2023-05-07T01:58:55;9.10;99.90
13229;DHT22;6680;53.220;10.402;2023-05-07T02:01:22;9.10;99.90
13229;DHT22;6680;53.220;10.402;2023-05-07T02:03:48;9.10;99.90
13229;DHT22;6680;53.220;10.402;2023-05-07T02:06:15;9.10;99.90
13229;DHT22;6680;53.220;10.402;2023-05-07T02:08:42;9.20;99.90
13229;DHT22;6680;53.220;10.402;2023-05-07T02:11:09;9.20;99.90
13229;DHT22;6680;53.220;10.402;2023-05-07T02:13:36;9.20;99.90
13229;DHT22;6680;53.220;10.402;2023-05-07T02:16:05;9.20;99.90
13229;DHT22;6680;53.220;10.402;2023-05-07T02:18:32;8.90;99.90
13229;DHT22;6680;53.220;10.402;2023-05-07T02:20:58;9.10;99.90
13229;DHT22;6680;53.220;10.402;2023-05-07T02:23:25;9.10;99.90
13229;DHT22;6680;53.220;10.402;2023-05-07T02:25:52;9.10;99.90
13229;DHT22;6680;53.220;10.402;2023-05-07T02:28:18;9.20;99.90
13229;DHT22;6680;53.220;10.402;2023-05-07T02:30:45;9.00;99.90
13229;DHT22;6680;53.220;10.402;2023-05-07T02:33:13;9.00;99.90
13229;DHT22;6680;53.220;10.402;2023-05-07T02:35:40;9.00;99.90
13229;DHT22;6680;53.220;10.402;2023-05-07T02:38:06;9.00;99.90
13229;DHT22;6680;53.220;10.402;2023-05-07T02:40:36;9.10;99.90
13229;DHT22;6680;53.220;10.402;2023-05-07T02:43:04;9.00;99.90
13229;DHT22;6680;53.220;10.402;2023-05-07T02:45:31;9.00;99.90
13229;DHT22;6680;53.220;10.402;2023-05-07T02:47:58;9.10;99.90
13229;DHT22;6680;53.220;10.402;2023-05-07T02:50:26;9.10;99.90
13229;DHT22;6680;53.220;10.402;2023-05-07T02:52:53;9.10;99.90
13229;DHT22;6680;53.220;10.402;2023-05-07T02:55:19;9.00;99.90
13229;DHT22;6680;53.220;10.402;2023-05-07T02:57:46;9.10;99.90
13229;DHT22;6680;53.220;10.402;2023-05-07T03:00:15;9.00;99.90
13229;DHT22;6680;53.220;10.402;2023-05-07T03:02:42;9.00;99.90
13229;DHT22;6680;53.220;10.402;2023-05-07T03:05:08;9.00;99.90
13229;DHT22;6680;53.220;10.402;2023-05-07T03:07:36;9.00;99.90
13229;DHT22;6680;53.220;10.402;2023-05-07T03:10:04;9.00;99.90
13229;DHT22;6680;53.220;10.402;2023-05-07T03:12:31;9.00;99.90
13229;DHT22;6680;53.220;10.402;2023-05-07T03:14:57;9.00;99.90
13229;DHT22;6680;53.220;10.402;2023-05-07T03:17:24;9.10;99.90
13229;DHT22;6680;53.220;10.402;2023-05-07T03:19:51;9.10;99.90
13229;DHT22;6680;53.220;10.402;2023-05-07T03:22:17;9.10;99.90
13229;DHT22;6680;53.220;10.402;2023-05-07T03:24:45;9.10;99.90
13229;DHT22;6680;53.220;10.402;2023-05-07T03:27:12;9.20;99.90
13229;DHT22;6680;53.220;10.402;2023-05-07T03:29:39;9.10;99.90
13229;DHT22;6680;53.220;10.402;2023-05-07T03:32:05;9.10;99.90
13229;DHT22;6680;53.220;10.402;2023-05-07T03:34:32;9.10;99.90
13229;DHT22;6680;53.220;10.402;2023-05-07T03:36:59;9.10;99.90
13229;DHT22;6680;53.220;10.402;2023-05-07T03:39:26;9.10;99.90
13229;DHT22;6680;53.220;10.402;2023-05-07T03:41:54;9.10;99.90
13229;DHT22;6680;53.220;10.402;2023-05-07T03:44:21;9.10;99.90
13229;DHT22;6680;53.220;10.402;2023-05-07T03:46:47;9.10;99.90
13229;DHT22;6680;53.220;10.402;2023-05-07T03:49:14;9.10;99.90
13229;DHT22;6680;53.220;10.402;2023-05-07T03:51:41;9.10;99.90
13229;DHT22;6680;53.220;10.402;2023-05-07T03:54:07;9.10;99.90
13229;DHT22;6680;53.220;10.402;2023-05-07T03:56:34;9.10;99.90
13229;DHT22;6680;53.220;10.402;2023-05-07T03:59:02;9.10;99.90
13229;DHT22;6680;53.220;10.402;2023-05-07T04:01:29;9.10;99.90
13229;DHT22;6680;53.220;10.402;2023-05-07T04:03:55;9.10;99.90
13229;DHT22;6680;53.220;10.402;2023-05-07T04:06:22;9.20;99.90
13229;DHT22;6680;53.220;10.402;2023-05-07T04:08:49;9.20;99.90
13229;DHT22;6680;53.220;10.402;2023-05-07T04:11:16;9.20;99.90
13229;DHT22;6680;53.220;10.402;2023-05-07T04:13:42;9.10;99.90
13229;DHT22;6680;53.220;10.402;2023-05-07T04:16:11;9.10;99.90
13229;DHT22;6680;53.220;10.402;2023-05-07T04:18:37;9.10;99.90
13229;DHT22;6680;53.220;10.402;2023-05-07T04:21:05;9.10;99.90
13229;DHT22;6680;53.220;10.402;2023-05-07T04:23:31;9.20;99.90
13229;DHT22;6680;53.220;10.402;2023-05-07T04:25:58;9.20;99.90
13229;DHT22;6680;53.220;10.402;2023-05-07T04:28:26;9.30;99.90
13229;DHT22;6680;53.220;10.402;2023-05-07T04:30:52;9.20;99.90
13229;DHT22;6680;53.220;10.402;2023-05-07T04:33:20;9.20;99.90
13229;DHT22;6680;53.220;10.402;2023-05-07T04:35:47;9.30;99.90
13229;DHT22;6680;53.220;10.402;2023-05-07T04:38:14;9.20;99.90
13229;DHT22;6680;53.220;10.402;2023-05-07T04:40:41;9.30;99.90
13229;DHT22;6680;53.220;10.402;2023-05-07T04:43:08;9.30;99.90
13229;DHT22;6680;53.220;10.402;2023-05-07T04:45:35;9.30;99.90
13229;DHT22;6680;53.220;10.402;2023-05-07T04:48:02;9.30;99.90
13229;DHT22;6680;53.220;10.402;2023-05-07T04:50:30;9.30;99.90
13229;DHT22;6680;53.220;10.402;2023-05-07T04:52:56;9.40;99.90
13229;DHT22;6680;53.220;10.402;2023-05-07T04:55:23;9.40;99.90
13229;DHT22;6680;53.220;10.402;2023-05-07T04:57:50;9.30;99.90
13229;DHT22;6680;53.220;10.402;2023-05-07T05:00:17;9.40;99.90
13229;DHT22;6680;53.220;10.402;2023-05-07T05:02:45;9.40;99.90
13229;DHT22;6680;53.220;10.402;2023-05-07T05:05:11;9.40;99.90
13229;DHT22;6680;53.220;10.402;2023-05-07T05:07:39;9.40;99.90
13229;DHT22;6680;53.220;10.402;2023-05-07T05:10:06;9.40;99.90
13229;DHT22;6680;53.220;10.402;2023-05-07T05:12:33;9.50;99.90
13229;DHT22;6680;53.220;10.402;2023-05-07T05:15:00;9.50;99.90
13229;DHT22;6680;53.220;10.402;2023-05-07T05:17:26;9.50;99.90
13229;DHT22;6680;53.220;10.402;2023-05-07T05:19:53;9.50;99.90
13229;DHT22;6680;53.220;10.402;2023-05-07T05:22:20;9.50;99.90
13229;DHT22;6680;53.220;10.402;2023-05-07T05:24:48;9.50;99.90
13229;DHT22;6680;53.220;10.402;2023-05-07T05:27:14;9.50;99.90
13229;DHT22;6680;53.220;10.402;2023-05-07T05:29:41;9.50;99.90
13229;DHT22;6680;53.220;10.402;2023-05-07T05:32:08;9.50;99.90
13229;DHT22;6680;53.220;10.402;2023-05-07T05:34:35;9.50;99.90
13229;DHT22;6680;53.220;10.402;2023-05-07T05:37:02;9.40;99.90
13229;DHT22;6680;53.220;10.402;2023-05-07T05:39:28;9.40;99.90
13229;DHT22;6680;53.220;10.402;2023-05-07T05:41:57;9.40;99.90
13229;DHT22;6680;53.220;10.402;2023-05-07T05:44:24;9.40;99.90
13229;DHT22;6680;53.220;10.402;2023-05-07T05:46:50;9.40;99.90
13229;DHT22;6680;53.220;10.402;2023-05-07T05:49:20;9.40;99.90
13229;DHT22;6680;53.220;10.402;2023-05-07T05:51:46;9.50;99.90
13229;DHT22;6680;53.220;10.402;2023-05-07T05:54:13;9.50;99.90
13229;DHT22;6680;53.220;10.402;2023-05-07T05:56:41;9.60;99.90
13229;DHT22;6680;53.220;10.402;2023-05-07T05:59:10;9.60;99.90
13229;DHT22;6680;53.220;10.402;2023-05-07T06:01:37;9.60;99.90
13229;DHT22;6680;53.220;10.402;2023-05-07T06:04:04;9.60;99.90
13229;DHT22;6680;53.220;10.402;2023-05-07T06:06:30;9.70;99.90
13229;DHT22;6680;53.220;10.402;2023-05-07T06:08:57;9.70;99.90
13229;DHT22;6680;53.220;10.402;2023-05-07T06:11:24;9.80;99.90
13229;DHT22;6680;53.220;10.402;2023-05-07T06:13:51;9.80;99.90
13229;DHT22;6680;53.220;10.402;2023-05-07T06:16:19;9.80;99.90
13229;DHT22;6680;53.220;10.402;2023-05-07T06:18:45;9.80;99.90
13229;DHT22;6680;53.220;10.402;2023-05-07T06:21:13;9.80;99.90
13229;DHT22;6680;53.220;10.402;2023-05-07T06:23:40;9.90;99.90
13229;DHT22;6680;53.220;10.402;2023-05-07T06:26:07;9.90;99.90
13229;DHT22;6680;53.220;10.402;2023-05-07T06:28:34;10.10;99.90
13229;DHT22;6680;53.220;10.402;2023-05-07T06:31:11;10.00;99.90
13229;DHT22;6680;53.220;10.402;2023-05-07T06:33:39;10.10;99.90
13229;DHT22;6680;53.220;10.402;2023-05-07T06:36:06;10.10;99.90
13229;DHT22;6680;53.220;10.402;2023-05-07T06:38:33;10.00;99.90
13229;DHT22;6680;53.220;10.402;2023-05-07T06:41:00;10.20;99.90
13229;DHT22;6680;53.220;10.402;2023-05-07T06:43:26;10.20;99.90
13229;DHT22;6680;53.220;10.402;2023-05-07T06:45:53;10.20;99.90
13229;DHT22;6680;53.220;10.402;2023-05-07T06:48:20;9.90;99.90
13229;DHT22;6680;53.220;10.402;2023-05-07T06:50:48;10.10;99.90
13229;DHT22;6680;53.220;10.402;2023-05-07T06:53:14;10.30;99.90
13229;DHT22;6680;53.220;10.402;2023-05-07T06:55:41;10.20;99.90
13229;DHT22;6680;53.220;10.402;2023-05-07T06:58:08;10.30;99.90
13229;DHT22;6680;53.220;10.402;2023-05-07T07:00:34;10.30;99.90
13229;DHT22;6680;53.220;10.402;2023-05-07T07:03:01;10.40;99.90
13229;DHT22;6680;53.220;10.402;2023-05-07T07:05:28;10.40;99.90
13229;DHT22;6680;53.220;10.402;2023-05-07T07:07:56;10.50;99.90
13229;DHT22;6680;53.220;10.402;2023-05-07T07:10:22;10.50;99.90
13229;DHT22;6680;53.220;10.402;2023-05-07T07:12:50;10.50;99.90
13229;DHT22;6680;53.220;10.402;2023-05-07T07:15:17;10.40;99.90
13229;DHT22;6680;53.220;10.402;2023-05-07T07:17:45;10.40;99.90
13229;DHT22;6680;53.220;10.402;2023-05-07T07:20:12;10.40;99.90
13229;DHT22;6680;53.220;10.402;2023-05-07T07:22:39;10.40;99.90
13229;DHT22;6680;53.220;10.402;2023-05-07T07:25:08;10.40;99.90
13229;DHT22;6680;53.220;10.402;2023-05-07T07:27:35;10.50;99.90
13229;DHT22;6680;53.220;10.402;2023-05-07T07:30:02;10.50;99.90
13229;DHT22;6680;53.220;10.402;2023-05-07T07:32:29;10.50;99.90
13229;DHT22;6680;53.220;10.402;2023-05-07T07:34:57;10.50;99.90
13229;DHT22;6680;53.220;10.402;2023-05-07T07:37:24;10.60;99.90
13229;DHT22;6680;53.220;10.402;2023-05-07T07:39:51;10.60;99.90
13229;DHT22;6680;53.220;10.402;2023-05-07T07:42:18;10.60;99.90
13229;DHT22;6680;53.220;10.402;2023-05-07T07:44:45;10.70;99.90
13229;DHT22;6680;53.220;10.402;2023-05-07T07:47:12;10.60;99.90
13229;DHT22;6680;53.220;10.402;2023-05-07T07:49:38;10.70;99.90
13229;DHT22;6680;53.220;10.402;2023-05-07T07:52:05;10.70;99.90
13229;DHT22;6680;53.220;10.402;2023-05-07T07:54:32;10.80;99.90
13229;DHT22;6680;53.220;10.402;2023-05-07T07:56:59;10.90;99.90
13229;DHT22;6680;53.220;10.402;2023-05-07T07:59:28;11.00;99.90
13229;DHT22;6680;53.220;10.402;2023-05-07T08:01:54;11.10;99.90
13229;DHT22;6680;53.220;10.402;2023-05-07T08:04:22;11.20;99.90
13229;DHT22;6680;53.220;10.402;2023-05-07T08:06:49;11.20;99.90
13229;DHT22;6680;53.220;10.402;2023-05-07T08:09:15;11.30;99.90
13229;DHT22;6680;53.220;10.402;2023-05-07T08:11:42;11.30;99.90
13229;DHT22;6680;53.220;10.402;2023-05-07T08:14:09;11.30;99.90
13229;DHT22;6680;53.220;10.402;2023-05-07T08:16:37;11.20;99.90
13229;DHT22;6680;53.220;10.402;2023-05-07T08:19:03;11.30;99.90
13229;DHT22;6680;53.220;10.402;2023-05-07T08:21:30;11.50;99.90
13229;DHT22;6680;53.220;10.402;2023-05-07T08:23:57;11.60;99.90
13229;DHT22;6680;53.220;10.402;2023-05-07T08:26:24;11.80;99.90
13229;DHT22;6680;53.220;10.402;2023-05-07T08:28:51;11.80;99.90
13229;DHT22;6680;53.220;10.402;2023-05-07T08:31:17;11.80;99.90
13229;DHT22;6680;53.220;10.402;2023-05-07T08:33:45;11.80;99.90
13229;DHT22;6680;53.220;10.402;2023-05-07T08:36:12;11.90;99.90
13229;DHT22;6680;53.220;10.402;2023-05-07T08:38:39;11.70;99.90
13229;DHT22;6680;53.220;10.402;2023-05-07T08:41:09;11.70;99.90
13229;DHT22;6680;53.220;10.402;2023-05-07T08:43:38;11.80;99.90
13229;DHT22;6680;53.220;10.402;2023-05-07T08:46:09;11.80;99.90
13229;DHT22;6680;53.220;10.402;2023-05-07T08:48:36;12.10;99.90
13229;DHT22;6680;53.220;10.402;2023-05-07T08:51:05;12.10;99.90
13229;DHT22;6680;53.220;10.402;2023-05-07T08:53:33;12.20;99.90
13229;DHT22;6680;53.220;10.402;2023-05-07T08:55:59;12.10;99.90
13229;DHT22;6680;53.220;10.402;2023-05-07T08:58:26;12.30;99.90
13229;DHT22;6680;53.220;10.402;2023-05-07T09:00:54;12.10;99.90
13229;DHT22;6680;53.220;10.402;2023-05-07T09:03:20;12.00;99.90
13229;DHT22;6680;53.220;10.402;2023-05-07T09:05:47;12.00;99.90
13229;DHT22;6680;53.220;10.402;2023-05-07T09:08:16;12.00;99.90
13229;DHT22;6680;53.220;10.402;2023-05-07T09:10:42;12.00;99.90
13229;DHT22;6680;53.220;10.402;2023-05-07T09:13:11;12.00;99.90
13229;DHT22;6680;53.220;10.402;2023-05-07T09:15:39;12.00;99.90
13229;DHT22;6680;53.220;10.402;2023-05-07T09:18:06;12.00;99.90
13229;DHT22;6680;53.220;10.402;2023-05-07T09:20:33;12.00;99.90
13229;DHT22;6680;53.220;10.402;2023-05-07T09:22:59;12.20;99.90
13229;DHT22;6680;53.220;10.402;2023-05-07T09:25:31;12.40;99.90
13229;DHT22;6680;53.220;10.402;2023-05-07T09:27:59;12.50;99.90
13229;DHT22;6680;53.220;10.402;2023-05-07T09:30:27;12.60;99.90
13229;DHT22;6680;53.220;10.402;2023-05-07T09:32:54;12.70;99.90
13229;DHT22;6680;53.220;10.402;2023-05-07T09:35:21;12.80;99.90
13229;DHT22;6680;53.220;10.402;2023-05-07T09:37:49;12.70;99.90
13229;DHT22;6680;53.220;10.402;2023-05-07T09:40:23;12.60;99.90
13229;DHT22;6680;53.220;10.402;2023-05-07T09:42:51;12.70;99.90
13229;DHT22;6680;53.220;10.402;2023-05-07T09:45:22;12.70;99.90
13229;DHT22;6680;53.220;10.402;2023-05-07T09:47:54;12.70;99.90
13229;DHT22;6680;53.220;10.402;2023-05-07T09:50:24;12.70;99.90
13229;DHT22;6680;53.220;10.402;2023-05-07T09:52:52;12.70;99.90
13229;DHT22;6680;53.220;10.402;2023-05-07T09:55:20;12.70;99.90
13229;DHT22;6680;53.220;10.402;2023-05-07T09:57:52;12.70;99.90
13229;DHT22;6680;53.220;10.402;2023-05-07T10:00:19;12.60;99.90
13229;DHT22;6680;53.220;10.402;2023-05-07T10:02:47;12.60;99.90
13229;DHT22;6680;53.220;10.402;2023-05-07T10:05:15;12.60;99.90
13229;DHT22;6680;53.220;10.402;2023-05-07T10:07:43;12.70;99.90
13229;DHT22;6680;53.220;10.402;2023-05-07T10:10:10;12.70;99.90
13229;DHT22;6680;53.220;10.402;2023-05-07T10:12:37;12.80;99.90
13229;DHT22;6680;53.220;10.402;2023-05-07T10:15:08;12.80;99.90
13229;DHT22;6680;53.220;10.402;2023-05-07T10:17:36;12.80;99.90
13229;DHT22;6680;53.220;10.402;2023-05-07T10:20:04;12.80;99.90
13229;DHT22;6680;53.220;10.402;2023-05-07T10:22:32;12.80;99.90
13229;DHT22;6680;53.220;10.402;2023-05-07T10:25:02;12.80;99.90
13229;DHT22;6680;53.220;10.402;2023-05-07T10:27:30;12.90;99.90
13229;DHT22;6680;53.220;10.402;2023-05-07T10:30:05;13.00;99.90
13229;DHT22;6680;53.220;10.402;2023-05-07T10:32:39;13.10;99.90
13229;DHT22;6680;53.220;10.402;2023-05-07T10:35:10;13.30;99.90
13229;DHT22;6680;53.220;10.402;2023-05-07T10:37:37;13.30;99.90
13229;DHT22;6680;53.220;10.402;2023-05-07T10:40:05;13.50;99.90
13229;DHT22;6680;53.220;10.402;2023-05-07T10:42:32;13.60;99.90
13229;DHT22;6680;53.220;10.402;2023-05-07T10:45:11;13.60;99.90
13229;DHT22;6680;53.220;10.402;2023-05-07T10:50:32;13.80;99.90
13229;DHT22;6680;53.220;10.402;2023-05-07T10:53:21;13.70;99.90
13229;DHT22;6680;53.220;10.402;2023-05-07T10:55:50;13.70;99.90
13229;DHT22;6680;53.220;10.402;2023-05-07T10:58:24;13.60;99.90
13229;DHT22;6680;53.220;10.402;2023-05-07T11:00:56;13.70;99.90
13229;DHT22;6680;53.220;10.402;2023-05-07T11:03:23;13.70;99.90
13229;DHT22;6680;53.220;10.402;2023-05-07T11:06:09;13.70;99.90
13229;DHT22;6680;53.220;10.402;2023-05-07T11:08:55;13.80;99.90
13229;DHT22;6680;53.220;10.402;2023-05-07T11:14:43;14.00;99.90
13229;DHT22;6680;53.220;10.402;2023-05-07T11:17:10;14.20;99.90
13229;DHT22;6680;53.220;10.402;2023-05-07T11:19:55;14.30;99.90
13229;DHT22;6680;53.220;10.402;2023-05-07T11:22:37;14.20;99.90
13229;DHT22;6680;53.220;10.402;2023-05-07T11:25:05;14.10;99.90
13229;DHT22;6680;53.220;10.402;2023-05-07T11:27:33;14.20;99.90
13229;DHT22;6680;53.220;10.402;2023-05-07T11:30:00;14.30;99.90
13229;DHT22;6680;53.220;10.402;2023-05-07T11:32:28;14.40;99.90
13229;DHT22;6680;53.220;10.402;2023-05-07T11:34:57;14.50;99.90
13229;DHT22;6680;53.220;10.402;2023-05-07T11:37:25;14.50;99.90
13229;DHT22;6680;53.220;10.402;2023-05-07T11:40:04;14.60;99.90
13229;DHT22;6680;53.220;10.402;2023-05-07T11:42:32;14.50;99.90
13229;DHT22;6680;53.220;10.402;2023-05-07T11:45:00;14.60;99.90
13229;DHT22;6680;53.220;10.402;2023-05-07T11:47:30;14.90;99.90
13229;DHT22;6680;53.220;10.402;2023-05-07T11:49:57;15.20;99.90
13229;DHT22;6680;53.220;10.402;2023-05-07T11:52:28;15.40;99.90
13229;DHT22;6680;53.220;10.402;2023-05-07T11:54:56;15.40;99.90
13229;DHT22;6680;53.220;10.402;2023-05-07T11:57:25;15.50;99.90
13229;DHT22;6680;53.220;10.402;2023-05-07T11:59:53;15.40;99.90
13229;DHT22;6680;53.220;10.402;2023-05-07T12:02:20;15.30;99.90
13229;DHT22;6680;53.220;10.402;2023-05-07T12:04:46;15.40;99.90
13229;DHT22;6680;53.220;10.402;2023-05-07T12:07:14;15.40;99.90
13229;DHT22;6680;53.220;10.402;2023-05-07T12:09:41;15.20;99.90
13229;DHT22;6680;53.220;10.402;2023-05-07T12:12:08;15.30;99.90
13229;DHT22;6680;53.220;10.402;2023-05-07T12:14:39;15.30;99.90
13229;DHT22;6680;53.220;10.402;2023-05-07T12:17:06;15.20;99.90
13229;DHT22;6680;53.220;10.402;2023-05-07T12:19:34;15.40;99.90
13229;DHT22;6680;53.220;10.402;2023-05-07T12:22:02;15.50;99.90
13229;DHT22;6680;53.220;10.402;2023-05-07T12:24:28;15.50;99.90
13229;DHT22;6680;53.220;10.402;2023-05-07T12:26:55;15.50;99.90
13229;DHT22;6680;53.220;10.402;2023-05-07T12:29:22;15.50;99.90
13229;DHT22;6680;53.220;10.402;2023-05-07T12:31:50;15.40;99.90
13229;DHT22;6680;53.220;10.402;2023-05-07T12:34:17;15.50;99.90
13229;DHT22;6680;53.220;10.402;2023-05-07T12:36:44;15.40;99.90
13229;DHT22;6680;53.220;10.402;2023-05-07T12:39:10;15.40;99.90
13229;DHT22;6680;53.220;10.402;2023-05-07T12:41:52;15.50;99.90
13229;DHT22;6680;53.220;10.402;2023-05-07T12:44:21;15.50;99.90
13229;DHT22;6680;53.220;10.402;2023-05-07T12:46:48;15.60;99.90
13229;DHT22;6680;53.220;10.402;2023-05-07T12:49:16;15.80;99.90
13229;DHT22;6680;53.220;10.402;2023-05-07T12:51:43;16.10;99.90
13229;DHT22;6680;53.220;10.402;2023-05-07T12:54:10;16.40;99.90
13229;DHT22;6680;53.220;10.402;2023-05-07T12:56:36;16.50;99.90
13229;DHT22;6680;53.220;10.402;2023-05-07T12:59:03;16.70;99.90
13229;DHT22;6680;53.220;10.402;2023-05-07T13:01:30;16.70;99.90
13229;DHT22;6680;53.220;10.402;2023-05-07T13:04:01;16.80;99.90
13229;DHT22;6680;53.220;10.402;2023-05-07T13:06:30;16.60;99.90
13229;DHT22;6680;53.220;10.402;2023-05-07T13:08:57;16.30;99.90
13229;DHT22;6680;53.220;10.402;2023-05-07T13:11:24;16.00;99.90
13229;DHT22;6680;53.220;10.402;2023-05-07T13:13:50;15.70;99.90
13229;DHT22;6680;53.220;10.402;2023-05-07T13:16:17;15.40;99.90
13229;DHT22;6680;53.220;10.402;2023-05-07T13:18:44;15.40;99.90
13229;DHT22;6680;53.220;10.402;2023-05-07T13:21:11;15.30;99.90
13229;DHT22;6680;53.220;10.402;2023-05-07T13:23:40;15.30;99.90
13229;DHT22;6680;53.220;10.402;2023-05-07T13:26:07;15.40;99.90
13229;DHT22;6680;53.220;10.402;2023-05-07T13:28:34;15.30;99.90
13229;DHT22;6680;53.220;10.402;2023-05-07T13:31:00;15.50;99.90
13229;DHT22;6680;53.220;10.402;2023-05-07T13:33:28;15.60;99.90
13229;DHT22;6680;53.220;10.402;2023-05-07T13:35:55;15.70;99.90
13229;DHT22;6680;53.220;10.402;2023-05-07T13:38:22;15.80;99.90
13229;DHT22;6680;53.220;10.402;2023-05-07T13:40:50;16.10;99.90
13229;DHT22;6680;53.220;10.402;2023-05-07T13:43:17;16.40;99.90
13229;DHT22;6680;53.220;10.402;2023-05-07T13:45:44;16.70;99.90
13229;DHT22;6680;53.220;10.402;2023-05-07T13:48:10;16.90;99.90
13229;DHT22;6680;53.220;10.402;2023-05-07T13:50:37;17.20;99.90
13229;DHT22;6680;53.220;10.402;2023-05-07T13:53:04;17.50;99.90
13229;DHT22;6680;53.220;10.402;2023-05-07T13:55:31;17.60;99.90
13229;DHT22;6680;53.220;10.402;2023-05-07T13:58:01;17.60;99.90
13229;DHT22;6680;53.220;10.402;2023-05-07T14:00:28;17.40;99.90
13229;DHT22;6680;53.220;10.402;2023-05-07T14:02:55;17.50;99.90
13229;DHT22;6680;53.220;10.402;2023-05-07T14:05:23;17.40;99.90
13229;DHT22;6680;53.220;10.402;2023-05-07T14:07:50;17.40;99.90
13229;DHT22;6680;53.220;10.402;2023-05-07T14:10:17;17.30;99.90
13229;DHT22;6680;53.220;10.402;2023-05-07T14:12:44;17.30;99.90
13229;DHT22;6680;53.220;10.402;2023-05-07T14:15:13;17.20;99.90
13229;DHT22;6680;53.220;10.402;2023-05-07T14:17:40;17.30;99.90
13229;DHT22;6680;53.220;10.402;2023-05-07T14:20:07;17.30;99.90
13229;DHT22;6680;53.220;10.402;2023-05-07T14:22:35;17.10;99.90
13229;DHT22;6680;53.220;10.402;2023-05-07T14:25:01;17.10;99.90
13229;DHT22;6680;53.220;10.402;2023-05-07T14:27:28;17.00;99.90
13229;DHT22;6680;53.220;10.402;2023-05-07T14:29:55;17.10;99.90
13229;DHT22;6680;53.220;10.402;2023-05-07T14:32:23;17.10;99.90
13229;DHT22;6680;53.220;10.402;2023-05-07T14:34:50;17.10;99.90
13229;DHT22;6680;53.220;10.402;2023-05-07T14:37:16;17.10;99.90
13229;DHT22;6680;53.220;10.402;2023-05-07T14:39:45;17.20;99.90
13229;DHT22;6680;53.220;10.402;2023-05-07T14:42:11;17.10;99.90
13229;DHT22;6680;53.220;10.402;2023-05-07T14:44:38;17.10;99.90
13229;DHT22;6680;53.220;10.402;2023-05-07T14:47:06;17.10;99.90
13229;DHT22;6680;53.220;10.402;2023-05-07T14:49:34;17.10;99.90
13229;DHT22;6680;53.220;10.402;2023-05-07T14:52:01;16.90;99.90
13229;DHT22;6680;53.220;10.402;2023-05-07T14:54:28;17.10;99.90
13229;DHT22;6680;53.220;10.402;2023-05-07T14:56:55;17.10;99.90
13229;DHT22;6680;53.220;10.402;2023-05-07T14:59:22;17.10;99.90
13229;DHT22;6680;53.220;10.402;2023-05-07T15:01:50;17.10;99.90
13229;DHT22;6680;53.220;10.402;2023-05-07T15:04:17;17.20;99.90
13229;DHT22;6680;53.220;10.402;2023-05-07T15:06:45;17.20;99.90
13229;DHT22;6680;53.220;10.402;2023-05-07T15:09:12;17.20;99.90
13229;DHT22;6680;53.220;10.402;2023-05-07T15:11:38;17.30;99.90
13229;DHT22;6680;53.220;10.402;2023-05-07T15:14:05;17.20;99.90
13229;DHT22;6680;53.220;10.402;2023-05-07T15:16:32;17.10;99.90
13229;DHT22;6680;53.220;10.402;2023-05-07T15:18:59;17.00;99.90
13229;DHT22;6680;53.220;10.402;2023-05-07T15:21:26;17.00;99.90
13229;DHT22;6680;53.220;10.402;2023-05-07T15:23:54;16.90;99.90
13229;DHT22;6680;53.220;10.402;2023-05-07T15:26:21;16.90;99.90
13229;DHT22;6680;53.220;10.402;2023-05-07T15:28:47;16.90;99.90
13229;DHT22;6680;53.220;10.402;2023-05-07T15:31:15;17.00;99.90
13229;DHT22;6680;53.220;10.402;2023-05-07T15:33:42;17.00;99.90
13229;DHT22;6680;53.220;10.402;2023-05-07T15:36:10;17.00;99.90
13229;DHT22;6680;53.220;10.402;2023-05-07T15:38:36;16.90;99.90
13229;DHT22;6680;53.220;10.402;2023-05-07T15:41:04;16.80;99.90
13229;DHT22;6680;53.220;10.402;2023-05-07T15:43:31;16.60;99.90
13229;DHT22;6680;53.220;10.402;2023-05-07T15:45:58;16.70;99.90